Progress Acres, Indiana
Current Conditions -  °F | °C
As of 2:53 PM on Sunday 25 Jan 2015 (Local Time) from KHUF Reporting Station
Haze Haze  
Wind Chill: 36°   Ceiling: 600
Heat Index: 39°   Visibility: 2.5mi
Dew Point: 37°   Wind: 5mph
Humidity: 93%   Direction: 100°E
Pressure: 29.6"   Gusts: NA
Location:  39.543°N, 87.3153°W
Report Text: KHUF 251953Z 10004KT 2 1/2SM BR BKN006 OVC014 04/03 A2960 RMK AO2 SLP028 T00390028
Loading
Personal Weather Stations






























Interactive Weather Map New forecast layout! Learn more

10-Day Weather Forecast

Advertisements
Track Severe Weather on mobile